Time;durP1;ratioP1;P1;durP2;ratioP2;P2;SDS_P1;SDS_P2;PMS_P1;PMS_P2;Temp;Humidity;BMP_temperature;BMP_pressure;BME280_temperature;BME280_humidity;BME280_pressure;Samples;Min_cycle;Max_cycle;Signal;HPM_P1;HPM_P2
2022/09/06 00:00:36;;;;;;;1897.97;827.50;;;19.40;1.00;;;;;;5056187;28;20490;-82
2022/09/06 00:03:03;;;;;;;1999.90;999.90;;;19.40;1.00;;;;;;5063859;28;20046;-82
2022/09/06 00:05:32;;;;;;;1999.90;999.90;;;19.40;1.00;;;;;;5072946;28;20055;-82
2022/09/06 00:08:01;;;;;;;1999.90;999.90;;;19.30;1.00;;;;;;5051712;28;20060;-82
2022/09/06 00:10:28;;;;;;;1925.22;826.60;;;19.20;1.00;;;;;;5051721;28;20106;-82
2022/09/06 00:13:05;;;;;;;1999.90;999.90;;;19.20;1.00;;;;;;5086400;28;20079;-82
2022/09/06 00:15:32;;;;;;;1999.90;999.90;;;19.20;1.00;;;;;;5065461;28;20079;-82
2022/09/06 00:18:03;;;;;;;1999.90;999.90;;;19.10;1.00;;;;;;5067919;28;20045;-82
2022/09/06 00:20:31;;;;;;;1968.63;624.97;;;19.10;1.00;;;;;;5067308;28;20298;-82
2022/09/06 00:22:57;;;;;;;;;;;19.00;1.00;;;;;;5066438;28;20321;-83
2022/09/06 00:25:24;;;;;;;1999.90;999.90;;;19.00;1.00;;;;;;5067871;28;19925;-82
2022/09/06 00:27:55;;;;;;;1999.90;999.90;;;18.90;1.00;;;;;;5069784;28;20052;-82
2022/09/06 00:30:21;;;;;;;1999.90;999.90;;;18.90;1.00;;;;;;5067742;28;20456;-82
2022/09/06 00:32:47;;;;;;;1999.90;999.90;;;18.80;1.00;;;;;;5068945;28;20396;-82
2022/09/06 00:35:12;;;;;;;1999.90;892.45;;;18.80;1.00;;;;;;5067049;28;20048;-82
2022/09/06 00:37:38;;;;;;;1999.90;901.30;;;18.80;1.00;;;;;;5062439;28;20048;-82
2022/09/06 00:40:04;;;;;;;1999.90;999.90;;;18.80;1.00;;;;;;5057290;28;20098;-83
2022/09/06 00:42:30;;;;;;;1999.90;851.25;;;18.80;1.00;;;;;;5068184;28;20051;-82
2022/09/06 00:44:56;;;;;;;1999.90;965.33;;;18.80;1.00;;;;;;5068741;28;20409;-82
2022/09/06 00:47:21;;;;;;;1999.90;999.90;;;18.70;1.00;;;;;;5071607;28;20056;-71
2022/09/06 00:49:52;;;;;;;1999.90;999.90;;;18.70;1.00;;;;;;5072617;28;20041;-71
2022/09/06 00:52:19;;;;;;;1999.90;999.90;;;18.70;1.00;;;;;;5072372;28;20040;-71
2022/09/06 00:54:46;;;;;;;1999.90;999.90;;;18.70;1.00;;;;;;5072301;28;20079;-77
2022/09/06 00:57:14;;;;;;;1999.90;785.13;;;18.70;1.00;;;;;;5087970;28;20138;-71
2022/09/06 00:59:41;;;;;;;1999.90;945.63;;;18.70;1.00;;;;;;5072715;28;20128;-71
2022/09/06 01:02:08;;;;;;;1999.90;779.90;;;18.60;1.00;;;;;;5071039;28;20052;-71
2022/09/06 01:04:37;;;;;;;1999.90;989.50;;;18.60;2.80;;;;;;5072733;28;20047;-71
2022/09/06 01:07:26;;;;;;;1999.90;999.90;;;18.60;3.80;;;;;;5071493;28;20538;-71
2022/09/06 01:10:01;;;;;;;1919.95;831.20;;;18.60;2.90;;;;;;5072323;28;20063;-73
2022/09/06 01:12:46;;;;;;;1999.90;999.90;;;18.60;1.30;;;;;;5072044;28;20083;-73
2022/09/06 01:15:18;;;;;;;1999.90;999.90;;;18.60;1.00;;;;;;5072114;28;20127;-71
2022/09/06 01:17:56;;;;;;;1999.90;999.90;;;18.60;1.00;;;;;;5072249;28;20055;-71
2022/09/06 01:20:43;;;;;;;1999.90;999.90;;;18.60;1.00;;;;;;5071835;28;20048;-72
2022/09/06 01:23:12;;;;;;;1999.90;831.63;;;18.50;1.00;;;;;;5071226;28;20512;-71
2022/09/06 01:25:58;;;;;;;1999.90;999.90;;;18.50;1.90;;;;;;5071967;28;20481;-73
2022/09/06 01:28:43;;;;;;;1999.90;977.38;;;18.50;1.90;;;;;;5070464;28;20534;-71
2022/09/06 01:31:24;;;;;;;1999.90;780.35;;;18.50;3.00;;;;;;5071073;28;20060;-71
2022/09/06 01:34:06;;;;;;;1999.90;999.90;;;18.50;4.90;;;;;;5071735;28;20388;-73
2022/09/06 01:36:56;;;;;;;1925.88;371.15;;;18.50;5.70;;;;;;5072291;28;20052;-71
2022/09/06 01:39:27;;;;;;;1999.90;981.80;;;18.50;8.20;;;;;;5071788;28;20393;-71
2022/09/06 01:41:56;;;;;;;1975.13;469.83;;;18.50;8.80;;;;;;5070688;28;20049;-71
2022/09/06 01:44:26;;;;;;;1999.90;999.90;;;18.50;9.10;;;;;;5071862;28;20040;-71
2022/09/06 01:47:17;;;;;;;1999.90;453.48;;;18.50;9.30;;;;;;5071488;28;20044;-71
2022/09/06 01:50:23;;;;;;;1999.90;999.90;;;18.50;9.80;;;;;;5054115;28;20052;-71
2022/09/06 01:53:21;;;;;;;1999.90;795.85;;;18.50;11.80;;;;;;5070816;28;20076;-71
2022/09/06 01:56:36;;;;;;;1999.90;999.90;;;18.50;11.70;;;;;;5071794;28;20052;-71
2022/09/06 01:59:49;;;;;;;1999.90;999.90;;;18.50;12.00;;;;;;5065997;28;20052;-71
2022/09/06 02:02:37;;;;;;;1999.90;862.20;;;18.50;14.80;;;;;;5065163;28;20298;-71
2022/09/06 02:05:09;;;;;;;1999.90;999.90;;;18.50;16.50;;;;;;5074770;28;20040;-71
2022/09/06 02:07:37;;;;;;;1999.90;965.42;;;18.50;24.00;;;;;;5074373;28;20052;-71
2022/09/06 02:10:08;;;;;;;1999.90;597.75;;;18.50;21.90;;;;;;5075625;28;20056;-71
2022/09/06 02:12:38;;;;;;;1999.90;880.60;;;18.50;20.80;;;;;;5075372;28;20092;-71
2022/09/06 02:15:35;;;;;;;1999.90;975.72;;;18.50;20.40;;;;;;5075243;28;20045;-71
2022/09/06 02:18:08;;;;;;;1999.90;932.08;;;18.50;21.10;;;;;;5072305;28;20060;-71
2022/09/06 02:20:40;;;;;;;1999.90;999.90;;;18.40;21.80;;;;;;5074473;28;20082;-71
2022/09/06 02:23:07;;;;;;;1999.90;874.42;;;18.40;22.60;;;;;;5075141;28;20088;-73
2022/09/06 02:26:03;;;;;;;1999.90;592.03;;;18.40;23.10;;;;;;5075290;28;20048;-71
2022/09/06 02:28:29;;;;;;;1999.90;999.90;;;18.40;21.60;;;;;;5074175;28;20098;-71
2022/09/06 02:31:00;;;;;;;1999.90;626.53;;;18.40;21.80;;;;;;5075114;28;20052;-71
2022/09/06 02:33:30;;;;;;;1999.90;719.03;;;18.40;21.20;;;;;;5073828;28;20408;-71
2022/09/06 02:36:04;;;;;;;1999.90;904.97;;;18.40;21.80;;;;;;5075278;28;20400;-71
2022/09/06 02:38:30;;;;;;;1940.63;799.60;;;18.40;22.00;;;;;;5074126;28;20048;-71
2022/09/06 02:40:57;;;;;;;1999.90;999.90;;;18.40;21.80;;;;;;5074521;28;20044;-71
2022/09/06 02:43:23;;;;;;;1999.90;525.28;;;18.30;20.80;;;;;;5074699;28;20048;-75
2022/09/06 02:45:48;;;;;;;1999.90;563.97;;;18.30;20.20;;;;;;5090731;28;20071;-71
2022/09/06 02:48:14;;;;;;;1999.90;541.10;;;18.30;20.50;;;;;;5073874;28;20048;-71
2022/09/06 02:50:40;;;;;;;1999.90;800.65;;;18.30;20.80;;;;;;5074813;28;20133;-71
2022/09/06 02:53:08;;;;;;;1999.90;893.33;;;18.30;22.10;;;;;;5073787;28;20072;-71
2022/09/06 02:55:34;;;;;;;1999.90;722.15;;;18.30;24.40;;;;;;5074054;28;20127;-71
2022/09/06 02:58:00;;;;;;;1999.90;999.90;;;18.30;23.70;;;;;;5074632;28;20079;-71
2022/09/06 03:00:27;;;;;;;1999.90;999.90;;;18.30;26.80;;;;;;5073555;28;20155;-71
2022/09/06 03:02:54;;;;;;;1999.90;779.88;;;18.30;30.30;;;;;;5075099;28;20052;-72
2022/09/06 03:05:21;;;;;;;1999.90;940.55;;;18.30;35.60;;;;;;5074191;28;20045;-71
2022/09/06 03:07:47;;;;;;;1999.90;981.85;;;18.30;32.30;;;;;;5074464;28;20080;-74
2022/09/06 03:10:13;;;;;;;1999.90;992.60;;;18.30;33.20;;;;;;5073253;28;20048;-74
2022/09/06 03:12:44;;;;;;;1999.90;649.75;;;18.30;35.10;;;;;;5074235;28;20561;-72
2022/09/06 03:15:11;;;;;;;1999.90;711.47;;;18.30;32.00;;;;;;5074454;28;20094;-72
2022/09/06 03:17:37;;;;;;;1999.90;686.53;;;18.30;32.00;;;;;;5074233;28;20048;-72
2022/09/06 03:20:04;;;;;;;1999.90;994.58;;;18.30;32.70;;;;;;5072895;28;20059;-72
2022/09/06 03:22:30;;;;;;;1999.90;675.22;;;18.30;35.20;;;;;;5074014;28;20056;-72
2022/09/06 03:24:56;;;;;;;1999.90;999.90;;;18.30;41.40;;;;;;5055914;28;20143;-72
2022/09/06 03:27:22;;;;;;;1999.90;494.60;;;18.20;31.70;;;;;;5072705;28;20170;-72
2022/09/06 03:29:48;;;;;;;1982.28;837.15;;;18.20;32.90;;;;;;5074209;28;20469;-72
2022/09/06 03:32:14;;;;;;;1999.90;999.90;;;18.20;33.00;;;;;;5074192;28;20056;-71
2022/09/06 03:34:39;;;;;;;1999.90;957.75;;;18.20;33.20;;;;;;5072791;28;20486;-72
2022/09/06 03:37:06;;;;;;;1999.90;425.85;;;18.20;30.70;;;;;;5073816;28;20048;-74
2022/09/06 03:39:31;;;;;;;1999.90;999.90;;;18.30;31.20;;;;;;5073793;28;20041;-72
2022/09/06 03:41:57;;;;;;;1860.20;835.08;;;18.20;27.90;;;;;;5073388;28;20512;-71
2022/09/06 03:44:23;;;;;;;1920.85;842.38;;;18.20;25.80;;;;;;5073404;28;20053;-71
2022/09/06 03:46:50;;;;;;;1999.90;703.83;;;18.20;27.90;;;;;;5073346;28;20127;-72
2022/09/06 03:49:16;;;;;;;1999.90;999.90;;;18.20;28.40;;;;;;5072988;28;20374;-71
2022/09/06 03:51:41;;;;;;;1999.90;798.50;;;18.20;27.80;;;;;;5072970;28;20043;-72
2022/09/06 03:54:07;;;;;;;1999.90;999.90;;;18.20;28.40;;;;;;5073039;28;20098;-72
2022/09/06 03:56:33;;;;;;;1999.90;481.70;;;18.30;29.10;;;;;;5072822;28;20044;-72
2022/09/06 03:58:59;;;;;;;1999.90;767.83;;;18.20;26.90;;;;;;5073357;28;20087;-72
2022/09/06 04:01:24;;;;;;;1999.90;619.35;;;18.20;27.90;;;;;;5073107;28;20045;-72
2022/09/06 04:03:50;;;;;;;1999.90;555.30;;;18.20;28.20;;;;;;5073574;28;20473;-71
2022/09/06 04:06:16;;;;;;;1999.90;862.50;;;18.20;27.50;;;;;;5072023;28;20127;-73
2022/09/06 04:08:41;;;;;;;1999.90;808.47;;;18.20;29.20;;;;;;5072354;28;20052;-72
2022/09/06 04:11:07;;;;;;;1946.88;496.00;;;18.20;29.10;;;;;;5072970;28;20503;-72
2022/09/06 04:13:34;;;;;;;1999.90;802.65;;;18.20;29.30;;;;;;5071902;28;20085;-72
2022/09/06 04:16:00;;;;;;;1999.90;836.80;;;18.20;28.80;;;;;;5072903;28;20045;-72
2022/09/06 04:18:25;;;;;;;1999.90;999.90;;;18.20;27.30;;;;;;5071990;28;20048;-72
2022/09/06 04:20:53;;;;;;;1999.90;999.90;;;18.20;28.90;;;;;;5072957;28;20055;-72
2022/09/06 04:23:19;;;;;;;1999.90;617.75;;;18.20;28.40;;;;;;5072317;28;20124;-72
2022/09/06 04:25:51;;;;;;;1933.18;405.70;;;18.20;27.70;;;;;;5071366;28;20049;-72
2022/09/06 04:28:17;;;;;;;1999.90;999.90;;;18.10;27.20;;;;;;5072358;28;20080;-72
2022/09/06 04:31:00;;;;;;;1999.90;999.90;;;18.10;29.40;;;;;;5070648;28;20388;-79
2022/09/06 04:33:27;;;;;;;1999.90;999.90;;;18.10;32.20;;;;;;5071434;28;20041;-72
2022/09/06 04:35:55;;;;;;;1999.90;984.73;;;18.00;38.10;;;;;;5072596;28;20072;-71
2022/09/06 04:38:22;;;;;;;1999.90;999.90;;;18.00;53.60;;;;;;5072212;28;20062;-72
2022/09/06 04:40:48;;;;;;;1999.90;999.90;;;17.90;83.20;;;;;;5071140;28;20137;-71
2022/09/06 04:43:14;;;;;;;1999.90;999.90;;;17.80;97.00;;;;;;5072910;28;20082;-71
2022/09/06 04:45:40;;;;;;;1999.90;999.90;;;17.70;99.90;;;;;;5070818;28;20044;-72
2022/09/06 04:48:06;;;;;;;1999.90;999.90;;;17.70;99.90;;;;;;5071600;28;20370;-72
2022/09/06 04:50:32;;;;;;;1999.90;999.90;;;17.60;99.90;;;;;;5069942;28;20052;-75
2022/09/06 04:52:57;;;;;;;1999.90;999.90;;;17.50;99.90;;;;;;5071804;28;20051;-73
2022/09/06 04:55:25;;;;;;;1999.90;999.90;;;17.40;99.90;;;;;;5071456;28;20463;-72
2022/09/06 04:57:51;;;;;;;1999.90;999.90;;;17.30;99.90;;;;;;5070190;28;20044;-71
2022/09/06 05:00:17;;;;;;;1999.90;999.90;;;17.30;99.90;;;;;;5069800;28;20039;-71
2022/09/06 05:02:43;;;;;;;1999.90;999.90;;;17.20;99.90;;;;;;5069394;28;20098;-71
2022/09/06 05:05:09;;;;;;;1999.90;999.90;;;17.10;99.90;;;;;;5070141;28;20040;-72
2022/09/06 05:07:35;;;;;;;1999.90;999.90;;;17.00;99.90;;;;;;5036986;28;20052;-72
2022/09/06 05:10:02;;;;;;;1999.90;999.90;;;17.00;99.90;;;;;;5070271;28;20095;-71
2022/09/06 05:12:27;;;;;;;1999.90;999.90;;;17.00;99.90;;;;;;5070609;28;20056;-72
2022/09/06 05:14:53;;;;;;;1999.90;999.90;;;17.00;99.90;;;;;;5071325;28;20040;-71
2022/09/06 05:17:19;;;;;;;1999.90;999.90;;;17.00;99.90;;;;;;5070108;28;20040;-72
2022/09/06 05:19:44;;;;;;;1999.90;999.90;;;17.00;99.90;;;;;;5069982;28;20385;-73
2022/09/06 05:22:11;;;;;;;1999.90;999.90;;;17.00;99.90;;;;;;5069707;28;20142;-70
2022/09/06 05:24:37;;;;;;;1999.90;999.90;;;17.00;99.90;;;;;;5071202;28;20040;-73
2022/09/06 05:27:04;;;;;;;1999.90;999.90;;;17.00;99.90;;;;;;5071289;28;20077;-78
2022/09/06 05:29:30;;;;;;;1999.90;999.90;;;17.00;99.90;;;;;;5070574;28;20090;-72
2022/09/06 05:31:56;;;;;;;1999.90;999.90;;;17.00;99.90;;;;;;5070637;28;20044;-70
2022/09/06 05:34:21;;;;;;;1999.90;999.90;;;17.00;99.90;;;;;;5071288;28;20056;-73
2022/09/06 05:36:47;;;;;;;1999.90;999.90;;;17.00;99.90;;;;;;5054414;28;20051;-73
2022/09/06 05:39:13;;;;;;;1999.90;989.38;;;17.00;99.90;;;;;;5072165;28;20076;-71
2022/09/06 05:41:38;;;;;;;1999.90;999.90;;;17.00;99.90;;;;;;5071074;28;20044;-71
2022/09/06 05:44:04;;;;;;;1999.90;996.55;;;17.00;99.90;;;;;;5071507;28;20048;-71
2022/09/06 05:46:30;;;;;;;1999.90;999.90;;;17.00;99.90;;;;;;5070702;28;20040;-71
2022/09/06 05:48:59;;;;;;;1999.90;994.10;;;17.00;99.90;;;;;;5072003;28;20048;-71
2022/09/06 05:51:26;;;;;;;1999.90;994.78;;;17.00;99.90;;;;;;5071958;28;20148;-72
2022/09/06 05:53:52;;;;;;;1999.90;977.40;;;17.00;99.90;;;;;;5071051;28;20048;-72
2022/09/06 05:56:17;;;;;;;1999.90;999.90;;;17.00;99.90;;;;;;5071122;28;20086;-72
2022/09/06 05:58:44;;;;;;;1999.90;999.90;;;17.00;99.90;;;;;;5070689;28;20076;-71
2022/09/06 06:01:21;;;;;;;1999.90;999.90;;;17.00;99.90;;;;;;5071817;28;20079;-78
2022/09/06 06:03:57;;;;;;;1999.90;999.90;;;17.10;99.90;;;;;;5071562;28;20052;-71
2022/09/06 06:06:24;;;;;;;1999.90;999.90;;;17.10;1.00;;;;;;5054272;28;20050;-72
2022/09/06 06:08:50;;;;;;;1999.90;999.90;;;17.10;1.00;;;;;;5071721;28;20324;-71
2022/09/06 06:11:16;;;;;;;1999.90;978.50;;;17.00;1.00;;;;;;5071807;28;20480;-71
2022/09/06 06:13:43;;;;;;;1999.90;998.65;;;17.00;1.00;;;;;;5071256;28;20051;-71
2022/09/06 06:16:11;;;;;;;1999.90;992.53;;;17.10;1.00;;;;;;5072155;28;20045;-71
2022/09/06 06:18:37;;;;;;;1999.90;999.90;;;17.10;1.00;;;;;;5071784;28;20439;-72
2022/09/06 06:21:07;;;;;;;1999.90;999.90;;;17.10;1.00;;;;;;5070505;28;20044;-72
2022/09/06 06:23:33;;;;;;;1999.90;999.90;;;17.10;1.00;;;;;;5070945;28;20041;-71
2022/09/06 06:25:58;;;;;;;1999.90;993.20;;;17.10;1.00;;;;;;5070315;28;20076;-73
2022/09/06 06:28:24;;;;;;;1999.90;999.58;;;17.10;1.00;;;;;;5072023;28;20051;-71
2022/09/06 06:30:50;;;;;;;1999.90;980.03;;;17.20;1.00;;;;;;5071623;28;20473;-72
2022/09/06 06:33:15;;;;;;;1999.90;800.95;;;17.20;1.00;;;;;;5070689;28;20059;-72
2022/09/06 06:35:54;;;;;;;1999.90;864.97;;;17.30;1.00;;;;;;5070403;28;20048;-71
2022/09/06 06:38:20;;;;;;;1999.90;767.42;;;17.30;99.90;;;;;;5071572;28;20049;-72
2022/09/06 06:40:46;;;;;;;1999.90;947.35;;;17.30;1.00;;;;;;5070720;28;20052;-72
2022/09/06 06:43:11;;;;;;;1999.90;945.97;;;17.30;99.90;;;;;;5071130;28;20405;-72
2022/09/06 06:45:37;;;;;;;1999.90;789.38;;;17.30;1.00;;;;;;5074133;28;20040;-71
2022/09/06 06:48:03;;;;;;;1999.90;955.75;;;17.30;99.90;;;;;;5057304;28;20036;-71
2022/09/06 06:50:28;;;;;;;1999.90;984.78;;;17.40;99.90;;;;;;5075179;28;20106;-72
2022/09/06 06:52:54;;;;;;;1999.90;799.58;;;17.40;99.90;;;;;;5074207;28;20091;-74
2022/09/06 06:55:20;;;;;;;1999.90;974.08;;;17.50;99.90;;;;;;5073886;28;20083;-72
2022/09/06 06:57:45;;;;;;;1999.90;783.72;;;17.60;99.90;;;;;;5073373;28;20052;-72
2022/09/06 07:00:11;;;;;;;1999.90;860.70;;;17.60;1.00;;;;;;5074836;28;20051;-71
2022/09/06 07:02:37;;;;;;;1999.90;842.45;;;17.70;99.90;;;;;;5074274;28;20151;-79
2022/09/06 07:05:04;;;;;;;1999.90;965.55;;;17.90;99.90;;;;;;5074830;28;20052;-71
2022/09/06 07:07:29;;;;;;;1999.90;999.90;;;18.00;99.90;;;;;;5075023;28;20087;-70
2022/09/06 07:09:55;;;;;;;1999.90;999.90;;;18.20;99.90;;;;;;5074366;28;20095;-72
2022/09/06 07:12:21;;;;;;;1999.90;606.28;;;18.40;99.90;;;;;;5073298;28;20056;-74
2022/09/06 07:14:46;;;;;;;1999.90;999.90;;;18.60;99.90;;;;;;5073942;28;20127;-70
2022/09/06 07:17:12;;;;;;;1999.90;886.35;;;18.70;99.90;;;;;;5090447;28;20052;-71
2022/09/06 07:19:38;;;;;;;1999.90;940.15;;;18.80;99.90;;;;;;5074248;28;20036;-71
2022/09/06 07:22:03;;;;;;;1999.90;999.90;;;18.90;99.90;;;;;;5074271;28;20094;-70
2022/09/06 07:24:29;;;;;;;1999.90;768.80;;;18.90;99.90;;;;;;5072893;28;20040;-70
2022/09/06 07:26:55;;;;;;;1999.90;900.88;;;19.00;99.90;;;;;;5073845;28;20044;-70
2022/09/06 07:29:20;;;;;;;1999.90;875.92;;;19.10;99.90;;;;;;5073455;28;20044;-70
2022/09/06 07:31:46;;;;;;;1999.90;951.03;;;19.20;99.90;;;;;;5073777;28;20149;-70
2022/09/06 07:34:12;;;;;;;1999.90;980.75;;;19.30;99.90;;;;;;5073992;28;20155;-71
2022/09/06 07:36:38;;;;;;;1999.90;886.53;;;19.40;99.90;;;;;;5074250;28;20098;-72
2022/09/06 07:39:03;;;;;;;1999.90;619.90;;;19.70;99.90;;;;;;5056704;28;20044;-73
2022/09/06 07:41:29;;;;;;;1999.90;852.60;;;20.60;99.90;;;;;;5073734;28;20048;-75
2022/09/06 07:43:55;;;;;;;1999.90;746.28;;;21.60;99.90;;;;;;5073609;28;20052;-72
2022/09/06 07:46:21;;;;;;;1999.90;999.90;;;22.80;99.90;;;;;;5074319;28;20040;-72
2022/09/06 07:48:48;;;;;;;1999.90;999.90;;;24.00;97.80;;;;;;5072550;28;20044;-72
2022/09/06 07:51:19;;;;;;;1016.88;438.45;;;25.40;76.20;;;;;;5074277;28;20041;-72
2022/09/06 07:53:50;;;;;;;1999.90;999.90;;;26.70;1.00;;;;;;5073254;28;20564;-71
2022/09/06 07:56:17;;;;;;;1999.90;999.90;;;27.40;1.00;;;;;;5073160;28;20463;-72
2022/09/06 07:58:42;;;;;;;1999.90;999.90;;;27.40;1.00;;;;;;5073413;28;20045;-71
2022/09/06 08:01:28;;;;;;;1999.90;999.90;;;26.80;1.00;;;;;;5073927;28;20044;-71
2022/09/06 08:03:59;;;;;;;1999.90;999.90;;;26.10;1.00;;;;;;5073360;28;20417;-72
2022/09/06 08:06:26;;;;;;;1999.90;999.90;;;25.40;1.00;;;;;;5072417;28;20086;-72
2022/09/06 08:08:52;;;;;;;1999.90;999.90;;;24.80;1.00;;;;;;5072471;28;20106;-72
2022/09/06 08:11:18;;;;;;;1999.90;999.90;;;24.40;1.00;;;;;;5072337;28;20401;-72
2022/09/06 08:13:47;;;;;;;1999.90;999.90;;;24.60;1.00;;;;;;5071676;28;20052;-71
2022/09/06 08:16:14;;;;;;;1999.90;999.90;;;25.30;1.00;;;;;;5073166;28;20036;-71
2022/09/06 08:18:40;;;;;;;1999.90;999.90;;;26.30;1.00;;;;;;5073515;28;20051;-72
2022/09/06 08:21:12;;;;;;;1999.90;999.90;;;27.20;1.00;;;;;;5073244;28;20396;-72
2022/09/06 08:23:42;;;;;;;1999.90;999.90;;;27.90;1.00;;;;;;5073226;28;20079;-73
2022/09/06 08:26:08;;;;;;;1999.90;999.90;;;28.70;1.00;;;;;;5072921;28;20099;-72
2022/09/06 08:28:34;;;;;;;1999.90;999.90;;;29.40;1.00;;;;;;5072404;28;20041;-72
2022/09/06 08:31:10;;;;;;;1999.90;999.90;;;30.60;1.00;;;;;;5072602;28;20080;-72
2022/09/06 08:33:37;;;;;;;1999.90;999.90;;;31.30;1.00;;;;;;5072850;28;20088;-72
2022/09/06 08:36:04;;;;;;;1999.90;999.90;;;31.40;1.00;;;;;;5072788;28;20051;-71
2022/09/06 08:38:30;;;;;;;1999.90;999.90;;;32.50;1.00;;;;;;5072999;28;20067;-73
2022/09/06 08:41:06;;;;;;;1999.90;999.90;;;33.00;1.00;;;;;;5071505;28;20082;-73
2022/09/06 08:43:33;;;;;;;1999.90;999.90;;;33.40;1.00;;;;;;5072845;28;20084;-78
2022/09/06 08:45:59;;;;;;;1999.90;999.90;;;33.30;99.90;;;;;;5071689;28;20045;-72
2022/09/06 08:48:31;;;;;;;1999.90;999.90;;;32.70;99.90;;;;;;5072664;28;20441;-71
2022/09/06 08:51:11;;;;;;;1999.90;999.90;;;33.20;99.90;;;;;;5072740;28;20048;-71
2022/09/06 08:53:45;;;;;;;1999.90;999.90;;;34.10;99.90;;;;;;5072597;28;20063;-71
2022/09/06 08:56:26;;;;;;;1999.90;999.90;;;33.20;99.90;;;;;;5072622;28;20045;-71
2022/09/06 08:58:51;;;;;;;1999.90;999.90;;;32.20;99.90;;;;;;5072695;28;20076;-71
2022/09/06 09:01:22;;;;;;;1999.90;999.90;;;31.00;99.90;;;;;;5070921;28;20562;-71
2022/09/06 09:03:47;;;;;;;1999.90;999.90;;;30.10;99.90;;;;;;5072274;28;20439;-72
2022/09/06 09:06:13;;;;;;;1999.90;999.90;;;29.20;99.90;;;;;;5071936;28;20044;-71
2022/09/06 09:08:55;;;;;;;1999.90;999.90;;;28.70;1.00;;;;;;5070574;28;20052;-75
2022/09/06 09:11:24;;;;;;;1999.90;999.90;;;28.30;1.00;;;;;;5072316;28;20053;-71
2022/09/06 09:13:54;;;;;;;1999.90;999.90;;;28.10;1.00;;;;;;5072020;28;20048;-71
2022/09/06 09:16:20;;;;;;;1999.90;999.90;;;28.30;1.00;;;;;;5072304;28;20123;-77
2022/09/06 09:18:51;;;;;;;1999.90;999.90;;;29.40;1.00;;;;;;5070924;28;20062;-72
2022/09/06 09:21:21;;;;;;;1999.90;999.90;;;31.20;1.00;;;;;;5072507;28;20048;-72
2022/09/06 09:23:53;;;;;;;1999.90;999.90;;;32.60;99.90;;;;;;5071897;28;20481;-72
2022/09/06 09:26:20;;;;;;;1999.90;999.90;;;33.10;99.90;;;;;;5072264;28;20056;-72
2022/09/06 09:29:09;;;;;;;1999.90;999.90;;;34.00;99.90;;;;;;5070440;28;20051;-74
2022/09/06 09:31:39;;;;;;;1999.90;999.90;;;34.40;99.90;;;;;;5071660;28;20551;-78
2022/09/06 09:34:09;;;;;;;1999.90;999.90;;;34.30;99.90;;;;;;5071088;28;20048;-74
2022/09/06 09:36:35;;;;;;;1999.90;999.90;;;34.70;99.90;;;;;;5071829;28;20535;-74
2022/09/06 09:39:08;;;;;;;1999.90;999.90;;;34.20;99.90;;;;;;5071911;28;20466;-74
2022/09/06 09:41:37;;;;;;;1999.90;999.90;;;34.90;99.90;;;;;;5071954;28;20059;-73
2022/09/06 09:44:14;;;;;;;1999.90;999.90;;;35.10;99.90;;;;;;5071421;28;20055;-73
2022/09/06 09:46:40;;;;;;;1999.90;999.90;;;33.80;99.90;;;;;;5072037;28;20075;-76
2022/09/06 09:49:11;;;;;;;1999.90;999.90;;;33.80;99.90;;;;;;5071511;28;20048;-74
2022/09/06 09:51:43;;;;;;;1999.90;999.90;;;34.50;99.90;;;;;;5071833;28;20447;-73
2022/09/06 09:54:12;;;;;;;1999.90;999.90;;;35.50;99.90;;;;;;5071260;28;20052;-72
2022/09/06 09:56:51;;;;;;;1999.90;999.90;;;35.80;99.90;;;;;;5071259;28;20049;-72
2022/09/06 09:59:30;;;;;;;1999.90;999.90;;;36.50;99.90;;;;;;5072199;28;20045;-75
2022/09/06 10:02:01;;;;;;;1999.90;999.90;;;36.50;99.90;;;;;;5071203;28;20057;-72
2022/09/06 10:04:30;;;;;;;1999.90;999.90;;;36.00;99.90;;;;;;5072073;28;20445;-72
2022/09/06 10:07:15;;;;;;;1999.90;999.90;;;36.10;99.90;;;;;;5071338;28;20123;-72
2022/09/06 10:09:45;;;;;;;1999.90;999.90;;;36.00;99.90;;;;;;5071803;28;20082;-74
2022/09/06 10:12:35;;;;;;;1999.90;999.90;;;36.40;99.90;;;;;;5070098;28;20059;-73
2022/09/06 10:15:01;;;;;;;1999.90;999.90;;;37.10;99.90;;;;;;5071083;28;20466;-73
2022/09/06 10:17:27;;;;;;;1999.90;999.90;;;37.30;99.90;;;;;;5071574;28;20048;-73
2022/09/06 10:19:53;;;;;;;1999.90;999.90;;;37.20;99.90;;;;;;5075132;28;20123;-73
2022/09/06 10:22:45;;;;;;;1999.90;999.90;;;37.60;99.90;;;;;;5074200;28;20413;-73
2022/09/06 10:25:35;;;;;;;1999.90;999.90;;;37.50;99.90;;;;;;5074768;28;20598;-73
2022/09/06 10:28:03;;;;;;;1999.90;999.90;;;37.60;99.90;;;;;;5075018;28;20057;-72
2022/09/06 10:30:34;;;;;;;1999.90;999.90;;;38.50;99.90;;;;;;5074995;28;20158;-73
2022/09/06 10:33:29;;;;;;;1999.90;999.90;;;38.40;99.90;;;;;;5073706;28;20072;-73
2022/09/06 10:35:57;;;;;;;1999.90;999.90;;;38.50;99.90;;;;;;5074879;28;20048;-74
2022/09/06 10:38:59;;;;;;;1999.90;999.90;;;38.60;99.90;;;;;;5057811;28;20048;-73
2022/09/06 10:41:53;;;;;;;1999.90;999.90;;;39.00;99.90;;;;;;5071915;28;20064;-79
2022/09/06 10:44:49;;;;;;;1999.90;999.90;;;38.70;99.90;;;;;;5074635;28;20095;-73
2022/09/06 10:47:15;;;;;;;1999.90;999.90;;;39.10;99.90;;;;;;5073379;28;20423;-73
2022/09/06 10:49:45;;;;;;;1999.90;999.90;;;38.90;99.90;;;;;;5040785;28;20044;-73
2022/09/06 10:52:24;;;;;;;1999.90;999.90;;;38.90;99.90;;;;;;5074212;28;20444;-73
2022/09/06 10:54:54;;;;;;;1999.90;999.90;;;38.70;99.90;;;;;;5074784;28;20045;-71
2022/09/06 10:57:26;;;;;;;1999.90;999.90;;;39.00;99.90;;;;;;5074458;28;20486;-71
2022/09/06 11:00:11;;;;;;;1999.90;999.90;;;39.90;99.90;;;;;;5074908;28;20051;-71
2022/09/06 11:03:09;;;;;;;1999.90;999.90;;;40.30;99.90;;;;;;5074681;28;20477;-70
2022/09/06 11:05:42;;;;;;;1999.90;999.90;;;40.20;99.90;;;;;;5075246;28;20049;-71
2022/09/06 11:08:21;;;;;;;1999.90;999.90;;;39.60;99.90;;;;;;5074026;28;20127;-71
2022/09/06 11:10:49;;;;;;;1999.90;999.90;;;39.90;99.90;;;;;;5074622;28;20059;-72
2022/09/06 11:13:18;;;;;;;1999.90;999.90;;;39.50;99.90;;;;;;5073732;28;20744;-72
2022/09/06 11:16:08;;;;;;;1999.90;999.90;;;38.20;99.90;;;;;;5074469;28;20051;-72
2022/09/06 11:18:43;;;;;;;1999.90;999.90;;;38.60;99.90;;;;;;5073283;28;20403;-71
2022/09/06 11:21:27;;;;;;;1999.90;999.90;;;39.50;99.90;;;;;;5073403;28;20044;-72
2022/09/06 11:24:12;;;;;;;1999.90;999.90;;;38.80;99.90;;;;;;5074113;28;20044;-72
2022/09/06 11:27:02;;;;;;;1999.90;999.90;;;39.90;99.90;;;;;;5074194;28;20045;-72
2022/09/06 11:29:31;;;;;;;1999.90;999.90;;;39.10;99.90;;;;;;5072314;28;20041;-74
2022/09/06 11:32:02;;;;;;;1999.90;999.90;;;39.30;99.90;;;;;;5074170;28;20040;-84
2022/09/06 11:34:31;;;;;;;1999.90;999.90;;;39.90;99.90;;;;;;5073937;28;20094;-72
2022/09/06 11:36:59;;;;;;;1999.90;999.90;;;39.80;99.90;;;;;;5072519;28;20131;-83
2022/09/06 11:39:30;;;;;;;1999.90;999.90;;;39.50;99.90;;;;;;5074045;28;20040;-76
2022/09/06 11:41:56;;;;;;;1999.90;999.90;;;39.20;99.90;;;;;;5072047;28;20075;-72
2022/09/06 11:44:48;;;;;;;1999.90;999.90;;;38.80;99.90;;;;;;5073688;28;20041;-76
2022/09/06 11:47:40;;;;;;;1999.90;999.90;;;38.70;99.90;;;;;;5054652;28;20055;-73
2022/09/06 11:50:26;;;;;;;1999.90;999.90;;;38.40;99.90;;;;;;5072139;28;20052;-73
2022/09/06 11:53:15;;;;;;;1999.90;999.90;;;38.40;99.90;;;;;;5072952;28;20121;-72
2022/09/06 11:56:08;;;;;;;1999.90;999.90;;;39.50;99.90;;;;;;5073461;28;20044;-72
2022/09/06 11:58:40;;;;;;;1999.90;999.90;;;38.60;99.90;;;;;;5073768;28;20091;-73
2022/09/06 12:01:11;;;;;;;1999.90;999.90;;;39.10;99.90;;;;;;5073018;28;20048;-73
2022/09/06 12:03:53;;;;;;;1999.90;999.90;;;39.00;99.90;;;;;;5073169;28;20040;-75
2022/09/06 12:06:24;;;;;;;1999.90;999.90;;;39.20;99.90;;;;;;5073363;28;20729;-72
2022/09/06 12:08:51;;;;;;;1999.90;999.90;;;39.80;99.90;;;;;;5073213;28;20405;-72
2022/09/06 12:11:36;;;;;;;1999.90;999.90;;;39.60;99.90;;;;;;5073089;28;20049;-72
2022/09/06 12:14:05;;;;;;;1999.90;999.90;;;38.90;99.90;;;;;;5073512;28;20131;-72
2022/09/06 12:17:06;;;;;;;1999.90;999.90;;;37.90;99.90;;;;;;5072461;28;20082;-73
2022/09/06 12:19:44;;;;;;;1999.90;999.90;;;36.80;99.90;;;;;;5072744;28;20060;-73